Time;durP1;ratioP1;P1;durP2;ratioP2;P2;SDS_P1;SDS_P2;PMS_P1;PMS_P2;Temp;Humidity;BMP_temperature;BMP_pressure;BME280_temperature;BME280_humidity;BME280_pressure;Samples;Min_cycle;Max_cycle;Signal;HPM_P1;HPM_P2
2022/05/14 00:00:39;;;;;;;;;;;12.80;99.90;;;;;;5008704;28;19914;-71
2022/05/14 00:03:05;;;;;;;;;;;12.80;99.90;;;;;;5008060;28;19909;-71
2022/05/14 00:05:30;;;;;;;;;;;12.70;99.90;;;;;;5007844;28;20291;-67
2022/05/14 00:07:56;;;;;;;;;;;12.70;99.90;;;;;;5005378;28;20003;-69
2022/05/14 00:10:22;;;;;;;;;;;12.60;99.90;;;;;;5006657;28;19925;-71
2022/05/14 00:13:03;;;;;;;;;;;12.80;99.90;;;;;;4988147;28;21958;-71
2022/05/14 00:15:30;;;;;;;;;;;12.80;99.90;;;;;;4985503;28;20053;-70
2022/05/14 00:17:55;;;;;;;;;;;12.90;99.90;;;;;;5005569;28;19913;-70
2022/05/14 00:20:23;;;;;;;;;;;12.90;99.90;;;;;;5006137;28;21369;-70
2022/05/14 00:22:52;;;;;;;;;;;12.90;99.90;;;;;;5008620;28;19913;-70
2022/05/14 00:25:19;;;;;;;;;;;13.10;99.90;;;;;;5008781;28;19916;-69
2022/05/14 00:27:45;;;;;;;;;;;13.20;99.90;;;;;;5003923;28;20498;-70
2022/05/14 00:30:12;;;;;;;;;;;13.20;99.90;;;;;;5007011;28;19928;-71
2022/05/14 00:32:38;;;;;;;;;;;13.20;99.90;;;;;;5006707;28;19910;-71
2022/05/14 00:35:04;;;;;;;;;;;13.10;99.90;;;;;;5007399;28;19910;-70
2022/05/14 00:37:30;;;;;;;;;;;13.00;99.90;;;;;;5008596;28;20168;-69
2022/05/14 00:39:56;;;;;;;;;;;12.90;99.90;;;;;;5006686;28;19914;-70
2022/05/14 00:42:21;;;;;;;;;;;12.90;99.90;;;;;;5006864;28;19909;-69
2022/05/14 00:44:47;;;;;;;;;;;13.00;99.90;;;;;;5008498;28;19909;-69
2022/05/14 00:47:15;;;;;;;;;;;13.00;99.90;;;;;;5005434;28;19909;-70
2022/05/14 00:49:40;;;;;;;;;;;13.00;99.90;;;;;;5006379;28;20379;-70
2022/05/14 00:52:09;;;;;;;;;;;13.00;99.90;;;;;;5007106;28;20222;-70
2022/05/14 00:54:38;;;;;;;;;;;13.00;99.90;;;;;;5008129;28;19913;-71
2022/05/14 00:57:06;;;;;;;;;;;13.00;99.90;;;;;;5004629;28;19916;-70
2022/05/14 00:59:32;;;;;;;;;;;13.00;99.90;;;;;;4989211;28;19913;-70
2022/05/14 01:01:58;;;;;;;;;;;13.00;99.90;;;;;;5003976;28;19979;-70
2022/05/14 01:04:23;;;;;;;;;;;13.10;99.90;;;;;;5007303;28;20371;-70
2022/05/14 01:06:56;;;;;;;;;;;13.20;99.90;;;;;;5003576;28;19909;-71
2022/05/14 01:09:22;;;;;;;;;;;13.20;99.90;;;;;;5003528;28;19956;-71
2022/05/14 01:11:48;;;;;;;;;;;13.20;99.90;;;;;;5006781;28;20371;-70
2022/05/14 01:14:14;;;;;;;;;;;13.20;99.90;;;;;;5006291;28;19940;-70
2022/05/14 01:16:40;;;;;;;;;;;13.10;99.90;;;;;;5005448;28;20201;-71
2022/05/14 01:19:06;;;;;;;;;;;13.10;99.90;;;;;;5004282;28;19910;-70
2022/05/14 01:21:49;;;;;;;;;;;13.00;99.90;;;;;;4988860;28;19917;-70
2022/05/14 01:27:08;;;;;;;;;;;12.90;99.90;;;;;;5006003;28;19961;-71
2022/05/14 01:29:34;;;;;;;;;;;12.90;99.90;;;;;;5007243;28;19957;-70
2022/05/14 01:32:00;;;;;;;;;;;12.90;99.90;;;;;;5005795;28;20279;-70
2022/05/14 01:34:30;;;;;;;;;;;12.90;99.90;;;;;;5006401;28;19909;-70
2022/05/14 01:36:56;;;;;;;;;;;12.90;99.90;;;;;;4969537;28;19921;-70
2022/05/14 01:39:21;;;;;;;;;;;13.00;99.90;;;;;;5003396;28;19914;-71
2022/05/14 01:41:47;;;;;;;;;;;12.90;99.90;;;;;;5002202;28;20319;-70
2022/05/14 01:44:13;;;;;;;;;;;12.90;99.90;;;;;;5001739;28;20042;-69
2022/05/14 01:46:38;;;;;;;;;;;13.00;99.90;;;;;;4981480;28;19913;-70
2022/05/14 01:49:04;;;;;;;;;;;13.10;99.90;;;;;;5001098;28;19924;-70
2022/05/14 01:51:30;;;;;;;;;;;13.10;99.90;;;;;;5000731;28;19924;-70
2022/05/14 01:53:55;;;;;;;;;;;13.10;99.90;;;;;;4981909;28;20359;-71
2022/05/14 01:56:21;;;;;;;;;;;13.00;99.90;;;;;;5003331;28;20273;-69
2022/05/14 01:58:46;;;;;;;;;;;12.90;99.90;;;;;;5000096;28;19914;-71
2022/05/14 02:01:12;;;;;;;;;;;12.90;99.90;;;;;;4995290;28;19918;-70
2022/05/14 02:03:38;;;;;;;;;;;12.80;99.90;;;;;;5002627;28;20002;-71
2022/05/14 02:06:04;;;;;;;;;;;12.70;99.90;;;;;;4983535;28;19913;-70
2022/05/14 02:08:29;;;;;;;;;;;12.70;99.90;;;;;;5000115;28;20413;-70
2022/05/14 02:10:55;;;;;;;;;;;12.70;99.90;;;;;;5000169;28;20391;-70
2022/05/14 02:13:20;;;;;;;;;;;12.70;99.90;;;;;;4999518;28;21022;-71
2022/05/14 02:15:46;;;;;;;;;;;12.70;99.90;;;;;;4983966;28;19910;-71
2022/05/14 02:18:12;;;;;;;;;;;12.70;99.90;;;;;;5002357;28;19956;-70
2022/05/14 02:20:39;;;;;;;;;;;12.70;99.90;;;;;;4997654;28;19929;-70
2022/05/14 02:23:06;;;;;;;;;;;12.80;99.90;;;;;;5001368;28;19909;-71
2022/05/14 02:25:31;;;;;;;;;;;12.80;99.90;;;;;;4998894;28;19909;-69
2022/05/14 02:27:57;;;;;;;;;;;12.80;99.90;;;;;;5000555;28;19920;-70
2022/05/14 02:30:23;;;;;;;;;;;12.80;99.90;;;;;;4999165;28;20310;-70
2022/05/14 02:32:48;;;;;;;;;;;12.60;99.90;;;;;;4997946;28;20390;-70
2022/05/14 02:35:14;;;;;;;;;;;12.50;99.90;;;;;;5000468;28;19959;-70
2022/05/14 02:37:39;;;;;;;;;;;12.40;99.90;;;;;;5002269;28;19913;-71
2022/05/14 02:40:05;;;;;;;;;;;12.40;99.90;;;;;;4999969;28;20319;-70
2022/05/14 02:42:31;;;;;;;;;;;12.50;99.90;;;;;;5004143;28;19909;-70
2022/05/14 02:44:56;;;;;;;;;;;12.50;99.90;;;;;;5007645;28;19917;-70
2022/05/14 02:47:25;;;;;;;;;;;12.50;99.90;;;;;;5000922;28;20002;-71
2022/05/14 02:49:51;;;;;;;;;;;12.50;99.90;;;;;;4999923;28;20019;-70
2022/05/14 02:52:16;;;;;;;;;;;12.60;99.90;;;;;;5004949;28;20017;-71
2022/05/14 02:54:42;;;;;;;;;;;12.80;99.90;;;;;;5003622;28;19956;-69
2022/05/14 02:57:08;;;;;;;;;;;12.90;99.90;;;;;;5002677;28;20387;-71
2022/05/14 02:59:33;;;;;;;;;;;12.90;99.90;;;;;;4986495;28;20343;-71
2022/05/14 03:01:59;;;;;;;;;;;12.90;99.90;;;;;;4986385;28;19980;-70
2022/05/14 03:04:28;;;;;;;;;;;12.80;99.90;;;;;;5006873;28;19917;-70
2022/05/14 03:06:55;;;;;;;;;;;13.00;99.90;;;;;;5004900;28;20365;-71
2022/05/14 03:09:21;;;;;;;;;;;12.80;99.90;;;;;;5004816;28;19924;-70
2022/05/14 03:11:46;;;;;;;;;;;12.80;99.90;;;;;;5005041;28;19909;-70
2022/05/14 03:14:12;;;;;;;;;;;13.00;99.90;;;;;;5004357;28;19988;-71
2022/05/14 03:16:39;;;;;;;;;;;13.00;99.90;;;;;;5007815;28;19916;-71
2022/05/14 03:19:04;;;;;;;;;;;12.90;99.90;;;;;;5004891;28;19963;-70
2022/05/14 03:21:30;;;;;;;;;;;12.70;99.90;;;;;;5005507;28;20383;-70
2022/05/14 03:23:55;;;;;;;;;;;12.70;99.90;;;;;;5006522;28;19992;-70
2022/05/14 03:26:21;;;;;;;;;;;12.70;99.90;;;;;;5002332;28;20386;-70
2022/05/14 03:28:46;;;;;;;;;;;12.60;99.90;;;;;;5003137;28;19917;-68
2022/05/14 03:31:12;;;;;;;;;;;12.50;99.90;;;;;;4990419;28;19913;-69
2022/05/14 03:33:38;;;;;;;;;;;12.40;99.90;;;;;;4980209;28;20363;-66
2022/05/14 03:36:04;;;;;;;;;;;12.30;99.90;;;;;;5001972;28;19928;-67
2022/05/14 03:38:29;;;;;;;;;;;12.20;99.90;;;;;;5004609;28;19962;-68
2022/05/14 03:40:55;;;;;;;;;;;12.20;99.90;;;;;;4985020;28;19944;-68
2022/05/14 03:43:20;;;;;;;;;;;12.10;99.90;;;;;;5004919;28;19956;-68
2022/05/14 03:45:46;;;;;;;;;;;12.10;99.90;;;;;;5001403;28;20056;-67
2022/05/14 03:48:11;;;;;;;;;;;12.00;99.90;;;;;;5005784;28;19909;-68
2022/05/14 03:50:37;;;;;;;;;;;12.10;99.90;;;;;;5001919;28;19921;-67
2022/05/14 03:53:02;;;;;;;;;;;12.10;99.90;;;;;;5002559;28;19913;-68
2022/05/14 03:55:28;;;;;;;;;;;12.00;99.90;;;;;;5004470;28;19917;-68
2022/05/14 03:57:54;;;;;;;;;;;12.10;99.90;;;;;;4983006;28;19909;-68
2022/05/14 04:00:19;;;;;;;;;;;12.10;99.90;;;;;;4999302;28;20008;-68
2022/05/14 04:02:46;;;;;;;;;;;12.20;99.90;;;;;;5002379;28;19914;-69
2022/05/14 04:05:11;;;;;;;;;;;12.20;99.90;;;;;;5002318;28;19917;-68
2022/05/14 04:07:37;;;;;;;;;;;12.40;99.90;;;;;;4986583;28;19979;-68
2022/05/14 04:10:04;;;;;;;;;;;12.30;99.90;;;;;;5000038;28;19920;-68
2022/05/14 04:12:29;;;;;;;;;;;12.30;99.90;;;;;;5001250;28;19918;-69
2022/05/14 04:14:55;;;;;;;;;;;12.20;99.90;;;;;;5004453;28;20267;-68
2022/05/14 04:17:20;;;;;;;;;;;12.10;99.90;;;;;;5001516;28;20256;-68
2022/05/14 04:19:46;;;;;;;;;;;12.00;99.90;;;;;;5003270;28;19915;-69
2022/05/14 04:22:12;;;;;;;;;;;12.10;99.90;;;;;;5003934;28;19932;-68
2022/05/14 04:24:37;;;;;;;;;;;12.10;99.90;;;;;;5004497;28;19940;-68
2022/05/14 04:27:03;;;;;;;;;;;12.20;99.90;;;;;;5000819;28;19910;-67
2022/05/14 04:29:28;;;;;;;;;;;12.10;99.90;;;;;;5001957;28;19917;-68
2022/05/14 04:31:54;;;;;;;;;;;12.10;99.90;;;;;;5000670;28;19998;-68
2022/05/14 04:34:20;;;;;;;;;;;12.10;99.90;;;;;;5003139;28;19914;-69
2022/05/14 04:36:46;;;;;;;;;;;12.20;99.90;;;;;;4986098;28;20359;-68
2022/05/14 04:39:11;;;;;;;;;;;12.30;99.90;;;;;;5000030;28;20101;-66
2022/05/14 04:41:37;;;;;;;;;;;12.40;99.90;;;;;;4982958;28;20059;-67
2022/05/14 04:44:03;;;;;;;;;;;12.50;99.90;;;;;;5005805;28;20414;-68
2022/05/14 04:46:28;;;;;;;;;;;12.60;99.90;;;;;;4986580;28;19909;-67
2022/05/14 04:48:54;;;;;;;;;;;12.60;99.90;;;;;;5009443;28;19917;-68
2022/05/14 04:51:20;;;;;;;;;;;12.60;99.90;;;;;;5003546;28;19917;-68
2022/05/14 04:53:45;;;;;;;;;;;12.60;99.90;;;;;;5006645;28;20340;-68
2022/05/14 04:56:11;;;;;;;;;;;12.60;99.90;;;;;;5005987;28;20029;-68
2022/05/14 04:58:37;;;;;;;;;;;12.60;99.90;;;;;;5007735;28;20004;-68
2022/05/14 05:01:02;;;;;;;;;;;12.60;99.90;;;;;;5004268;28;20279;-68
2022/05/14 05:03:31;;;;;;;;;;;12.70;99.90;;;;;;5006692;28;19913;-68
2022/05/14 05:05:58;;;;;;;;;;;12.90;99.90;;;;;;5005684;28;19916;-68
2022/05/14 05:08:25;;;;;;;;;;;12.90;99.90;;;;;;4986639;28;19968;-67
2022/05/14 05:10:51;;;;;;;;;;;12.90;99.90;;;;;;5006437;28;20382;-67
2022/05/14 05:13:18;;;;;;;;;;;12.90;99.90;;;;;;4984683;28;19934;-68
2022/05/14 05:15:44;;;;;;;;;;;12.90;99.90;;;;;;4991009;28;19920;-68
2022/05/14 05:18:10;;;;;;;;;;;12.90;99.90;;;;;;5006069;28;20271;-68
2022/05/14 05:20:36;;;;;;;;;;;12.90;99.90;;;;;;4983898;28;19974;-66
2022/05/14 05:23:03;;;;;;;;;;;12.90;99.90;;;;;;5002832;28;19917;-69
2022/05/14 05:25:29;;;;;;;;;;;13.00;99.90;;;;;;4988784;28;19909;-68
2022/05/14 05:27:55;;;;;;;;;;;13.00;99.90;;;;;;4984930;28;19909;-68
2022/05/14 05:30:21;;;;;;;;;;;13.10;99.90;;;;;;4983474;28;19925;-67
2022/05/14 05:32:47;;;;;;;;;;;13.10;99.90;;;;;;5004801;28;19913;-68
2022/05/14 05:35:12;;;;;;;;;;;13.20;99.90;;;;;;4988366;28;20025;-69
2022/05/14 05:37:38;;;;;;;;;;;13.20;99.90;;;;;;5004008;28;19960;-70
2022/05/14 05:40:04;;;;;;;;;;;13.20;99.90;;;;;;5005817;28;21396;-68
2022/05/14 05:42:29;;;;;;;;;;;13.20;99.90;;;;;;5006089;28;20323;-68
2022/05/14 05:44:55;;;;;;;;;;;13.20;99.90;;;;;;5007543;28;19920;-68
2022/05/14 05:47:21;;;;;;;;;;;13.20;99.90;;;;;;4980658;28;19910;-68
2022/05/14 05:49:47;;;;;;;;;;;13.20;99.90;;;;;;5008468;28;20079;-67
2022/05/14 05:52:12;;;;;;;;;;;13.40;99.90;;;;;;5004457;28;20003;-68
2022/05/14 05:57:30;;;;;;;;;;;13.50;99.90;;;;;;5005830;28;20003;-67
2022/05/14 05:59:55;;;;;;;;;;;13.40;99.90;;;;;;5004709;28;19933;-69
2022/05/14 06:02:21;;;;;;;;;;;13.50;99.90;;;;;;5006328;28;20008;-71
2022/05/14 06:04:49;;;;;;;;;;;13.70;99.90;;;;;;4999835;28;19918;-67
2022/05/14 06:07:15;;;;;;;;;;;13.80;99.90;;;;;;5003118;28;19916;-69
2022/05/14 06:09:40;;;;;;;;;;;13.90;99.90;;;;;;5005755;28;19925;-68
2022/05/14 06:12:06;;;;;;;;;;;13.90;99.90;;;;;;4986082;28;19968;-69
2022/05/14 06:14:32;;;;;;;;;;;14.00;99.90;;;;;;5002091;28;19916;-68
2022/05/14 06:16:58;;;;;;;;;;;14.10;99.90;;;;;;5001987;28;20367;-68
2022/05/14 06:19:23;;;;;;;;;;;14.20;99.90;;;;;;4989182;28;20338;-70
2022/05/14 06:21:49;;;;;;;;;;;14.30;99.90;;;;;;5008895;28;19909;-69
2022/05/14 06:24:14;;;;;;;;;;;14.40;99.90;;;;;;5005469;28;19909;-68
2022/05/14 06:26:40;;;;;;;;;;;14.40;99.90;;;;;;4988378;28;19913;-69
2022/05/14 06:29:06;;;;;;;;;;;14.00;99.90;;;;;;4989668;28;19963;-68
2022/05/14 06:31:32;;;;;;;;;;;14.10;99.90;;;;;;5002622;28;20382;-68
2022/05/14 06:33:59;;;;;;;;;;;14.20;99.90;;;;;;5000131;28;20318;-69
2022/05/14 06:36:24;;;;;;;;;;;14.40;99.90;;;;;;5002845;28;19951;-68
2022/05/14 06:38:50;;;;;;;;;;;14.60;99.90;;;;;;5006269;28;20405;-68
2022/05/14 06:41:16;;;;;;;;;;;14.60;99.90;;;;;;5009218;28;19963;-68
2022/05/14 06:43:41;;;;;;;;;;;14.60;99.90;;;;;;4990984;28;20000;-68
2022/05/14 06:46:08;;;;;;;;;;;14.60;99.90;;;;;;5009099;28;20004;-69
2022/05/14 06:48:34;;;;;;;;;;;14.80;99.90;;;;;;5009285;28;19913;-68
2022/05/14 06:51:02;;;;;;;;;;;14.80;99.90;;;;;;5009012;28;19964;-69
2022/05/14 06:53:28;;;;;;;;;;;14.90;99.90;;;;;;4988152;28;19913;-68
2022/05/14 06:55:55;;;;;;;;;;;15.00;99.90;;;;;;4987061;28;19909;-70
2022/05/14 06:58:23;;;;;;;;;;;15.10;99.90;;;;;;5006055;28;19952;-69
2022/05/14 07:00:50;;;;;;;;;;;15.00;99.90;;;;;;5007762;28;19952;-68
2022/05/14 07:08:44;;;;;;;;;;;15.30;99.90;;;;;;5002081;28;19916;-69
2022/05/14 07:11:10;;;;;;;;;;;15.40;99.90;;;;;;5007257;28;20335;-69
2022/05/14 07:13:36;;;;;;;;;;;15.50;99.90;;;;;;5003859;28;19924;-68
2022/05/14 07:16:02;;;;;;;;;;;15.60;99.90;;;;;;5001625;28;19909;-69
2022/05/14 07:18:28;;;;;;;;;;;15.60;99.90;;;;;;4986058;28;19923;-68
2022/05/14 07:20:54;;;;;;;;;;;15.50;99.90;;;;;;4997644;28;19910;-68
2022/05/14 07:23:20;;;;;;;;;;;15.50;99.90;;;;;;5004870;28;20262;-69
2022/05/14 07:25:46;;;;;;;;;;;15.60;99.90;;;;;;5004749;28;19921;-69
2022/05/14 07:28:11;;;;;;;;;;;15.60;99.90;;;;;;5000062;28;19909;-70
2022/05/14 07:30:37;;;;;;;;;;;15.60;99.90;;;;;;5003865;28;20004;-69
2022/05/14 07:33:02;;;;;;;;;;;15.70;99.90;;;;;;5001303;28;19921;-69
2022/05/14 07:35:28;;;;;;;;;;;15.70;99.90;;;;;;5000192;28;20004;-68
2022/05/14 07:37:55;;;;;;;;;;;15.60;99.90;;;;;;5003015;28;19917;-69
2022/05/14 07:40:22;;;;;;;;;;;15.80;99.90;;;;;;4997174;28;19925;-69
2022/05/14 07:42:57;;;;;;;;;;;16.00;99.90;;;;;;4998442;28;19910;-69
2022/05/14 07:45:28;;;;;;;;;;;16.00;99.90;;;;;;4992596;28;19914;-68
2022/05/14 07:47:55;;;;;;;;;;;16.00;99.90;;;;;;4999269;28;20017;-69
2022/05/14 07:50:21;;;;;;;;;;;15.80;99.90;;;;;;4998405;28;19971;-70
2022/05/14 07:52:46;;;;;;;;;;;15.60;99.90;;;;;;4979606;28;19909;-71
2022/05/14 07:55:12;;;;;;;;;;;15.50;99.90;;;;;;4996119;28;19909;-68
2022/05/14 07:57:38;;;;;;;;;;;15.50;99.90;;;;;;4997809;28;19913;-69
2022/05/14 08:00:04;;;;;;;;;;;15.70;99.90;;;;;;4996913;28;20479;-67
2022/05/14 08:02:37;;;;;;;;;;;15.90;99.90;;;;;;5000659;28;19910;-69
2022/05/14 08:05:08;;;;;;;;;;;15.70;99.90;;;;;;5000435;28;19972;-68
2022/05/14 08:07:33;;;;;;;;;;;15.70;99.90;;;;;;5003149;28;19944;-68
2022/05/14 08:09:59;;;;;;;;;;;15.90;99.90;;;;;;5000659;28;20048;-69
2022/05/14 08:12:25;;;;;;;;;;;16.10;99.90;;;;;;5002103;28;20004;-69
2022/05/14 08:14:51;;;;;;;;;;;16.20;99.90;;;;;;5001191;28;19910;-69
2022/05/14 08:17:17;;;;;;;;;;;16.00;99.90;;;;;;5002243;28;19914;-69
2022/05/14 08:19:42;;;;;;;;;;;16.20;99.90;;;;;;5002215;28;20275;-69
2022/05/14 08:24:54;;;;;;;;;;;16.30;99.90;;;;;;5003563;28;20012;-68
2022/05/14 08:27:19;;;;;;;;;;;16.60;99.90;;;;;;4987501;28;19917;-70
2022/05/14 08:29:47;;;;;;;;;;;16.90;99.90;;;;;;5003451;28;19944;-70
2022/05/14 08:32:13;;;;;;;;;;;16.70;99.90;;;;;;4998263;28;20052;-69
2022/05/14 08:34:39;;;;;;;;;;;16.50;99.90;;;;;;5002519;28;20270;-70
2022/05/14 08:37:05;;;;;;;;;;;16.60;99.90;;;;;;5006110;28;19909;-69
2022/05/14 08:39:30;;;;;;;;;;;16.70;99.90;;;;;;5007049;28;20339;-68
2022/05/14 08:42:00;;;;;;;;;;;16.90;99.90;;;;;;4985482;28;19917;-70
2022/05/14 08:44:31;;;;;;;;;;;17.00;99.90;;;;;;5008633;28;19909;-69
2022/05/14 08:46:58;;;;;;;;;;;16.90;99.90;;;;;;5010506;28;19910;-70
2022/05/14 08:49:42;;;;;;;;;;;16.60;99.90;;;;;;5006418;28;19917;-69
2022/05/14 08:52:16;;;;;;;;;;;16.50;99.90;;;;;;5003920;28;19914;-69
2022/05/14 08:54:42;;;;;;;;;;;16.30;99.90;;;;;;4987893;28;19945;-70
2022/05/14 08:57:12;;;;;;;;;;;16.40;99.90;;;;;;5007699;28;19984;-70
2022/05/14 08:59:42;;;;;;;;;;;16.50;99.90;;;;;;5004990;28;19910;-69
2022/05/14 09:02:13;;;;;;;;;;;16.60;99.90;;;;;;5006125;28;19910;-71
2022/05/14 09:04:38;;;;;;;;;;;16.90;99.90;;;;;;5004732;28;19913;-68
2022/05/14 09:07:04;;;;;;;;;;;17.30;99.90;;;;;;5005356;28;20434;-70
2022/05/14 09:09:31;;;;;;;;;;;17.40;99.90;;;;;;5007264;28;20493;-69
2022/05/14 09:11:58;;;;;;;;;;;17.80;99.90;;;;;;5007881;28;19909;-69
2022/05/14 09:14:34;;;;;;;;;;;18.10;99.90;;;;;;5003348;28;19921;-69
2022/05/14 09:17:00;;;;;;;;;;;18.40;99.90;;;;;;5003794;28;19921;-69
2022/05/14 09:19:31;;;;;;;;;;;18.30;99.90;;;;;;5007053;28;20252;-68
2022/05/14 09:21:57;;;;;;;;;;;17.90;99.90;;;;;;5008273;28;19909;-69
2022/05/14 09:24:26;;;;;;;;;;;18.00;99.90;;;;;;5006978;28;19916;-70
2022/05/14 09:26:53;;;;;;;;;;;17.90;99.90;;;;;;5005252;28;19996;-69
2022/05/14 09:29:26;;;;;;;;;;;18.00;99.90;;;;;;4988983;28;19925;-68
2022/05/14 09:31:54;;;;;;;;;;;18.10;99.90;;;;;;5006625;28;20417;-68
2022/05/14 09:34:20;;;;;;;;;;;17.90;99.90;;;;;;5005762;28;20371;-70
2022/05/14 09:36:48;;;;;;;;;;;17.70;99.90;;;;;;5008031;28;19910;-70
2022/05/14 09:39:18;;;;;;;;;;;17.80;99.90;;;;;;5005806;28;19909;-69
2022/05/14 09:41:49;;;;;;;;;;;18.00;99.90;;;;;;5004393;28;19978;-70
2022/05/14 09:44:17;;;;;;;;;;;18.00;99.90;;;;;;5006226;28;19913;-69
2022/05/14 09:46:43;;;;;;;;;;;17.80;99.90;;;;;;5004564;28;19928;-70
2022/05/14 09:49:09;;;;;;;;;;;17.60;99.90;;;;;;5005675;28;19909;-70
2022/05/14 09:51:54;;;;;;;;;;;17.70;99.90;;;;;;5006379;28;19937;-71
2022/05/14 09:54:26;;;;;;;;;;;17.80;99.90;;;;;;5006027;28;19909;-68
2022/05/14 09:56:52;;;;;;;;;;;18.10;99.90;;;;;;5001223;28;19956;-70
2022/05/14 09:59:29;;;;;;;;;;;18.10;99.90;;;;;;4985275;28;20415;-68
2022/05/14 10:01:59;;;;;;;;;;;17.80;99.90;;;;;;5005435;28;20019;-71
2022/05/14 10:04:24;;;;;;;;;;;17.50;99.90;;;;;;5006231;28;19940;-69
2022/05/14 10:06:55;;;;;;;;;;;17.50;99.90;;;;;;5001475;28;19921;-69
2022/05/14 10:09:40;;;;;;;;;;;17.50;99.90;;;;;;5001503;28;19918;-69
2022/05/14 10:12:21;;;;;;;;;;;17.50;99.90;;;;;;5005010;28;19929;-68
2022/05/14 10:14:50;;;;;;;;;;;17.60;99.90;;;;;;5005753;28;20239;-69
2022/05/14 10:17:24;;;;;;;;;;;17.50;99.90;;;;;;5003542;28;19951;-68
2022/05/14 10:20:08;;;;;;;;;;;17.40;99.90;;;;;;5001909;28;20354;-70
2022/05/14 10:28:55;;;;;;;;;;;17.50;99.90;;;;;;5003511;28;20003;-70
2022/05/14 10:31:23;;;;;;;;;;;17.40;99.90;;;;;;5001500;28;20008;-69
2022/05/14 10:33:51;;;;;;;;;;;17.30;99.90;;;;;;5004318;28;19909;-70
2022/05/14 10:36:23;;;;;;;;;;;17.20;99.90;;;;;;5002953;28;19920;-70
2022/05/14 10:38:53;;;;;;;;;;;17.10;99.90;;;;;;4982290;28;19916;-70
2022/05/14 10:41:26;;;;;;;;;;;17.10;99.90;;;;;;4994649;28;19917;-69
2022/05/14 10:43:55;;;;;;;;;;;17.10;99.90;;;;;;4988805;28;19909;-69
2022/05/14 10:46:22;;;;;;;;;;;17.20;99.90;;;;;;5006703;28;20153;-70
2022/05/14 10:48:55;;;;;;;;;;;17.10;99.90;;;;;;5005898;28;19924;-70
2022/05/14 10:51:24;;;;;;;;;;;17.10;99.90;;;;;;5007108;28;19918;-70
2022/05/14 10:53:50;;;;;;;;;;;17.10;99.90;;;;;;5006144;28;20446;-71
2022/05/14 10:56:21;;;;;;;;;;;17.00;99.90;;;;;;5007747;28;19920;-70
2022/05/14 10:59:05;;;;;;;;;;;17.00;99.90;;;;;;5003165;28;19967;-69
2022/05/14 11:01:37;;;;;;;;;;;17.00;99.90;;;;;;5007488;28;19929;-70
2022/05/14 11:04:14;;;;;;;;;;;16.90;99.90;;;;;;4992011;28;19979;-69
2022/05/14 11:06:51;;;;;;;;;;;16.90;99.90;;;;;;5000081;28;20352;-69
2022/05/14 11:09:18;;;;;;;;;;;17.00;99.90;;;;;;5000368;28;19923;-71
2022/05/14 11:11:48;;;;;;;;;;;17.20;99.90;;;;;;5004542;28;19995;-68
2022/05/14 11:14:14;;;;;;;;;;;17.40;99.40;;;;;;4977166;28;19953;-70
2022/05/14 11:16:41;;;;;;;;;;;17.40;98.80;;;;;;5001360;28;20011;-70
2022/05/14 11:19:07;;;;;;;;;;;17.50;99.10;;;;;;5000445;28;20016;-71
2022/05/14 11:21:41;;;;;;;;;;;17.60;98.90;;;;;;5001612;28;20043;-69
2022/05/14 11:24:07;;;;;;;;;;;17.70;99.10;;;;;;4979914;28;19910;-71
2022/05/14 11:26:42;;;;;;;;;;;17.90;98.40;;;;;;5002502;28;19996;-71
2022/05/14 11:29:12;;;;;;;;;;;17.90;98.00;;;;;;5002715;28;19921;-71
2022/05/14 11:31:42;;;;;;;;;;;17.80;98.30;;;;;;5003701;28;19961;-69
2022/05/14 11:34:22;;;;;;;;;;;17.90;98.10;;;;;;4999727;28;19921;-70
2022/05/14 11:36:49;;;;;;;;;;;18.00;98.20;;;;;;5002588;28;19956;-70
2022/05/14 11:39:21;;;;;;;;;;;18.30;98.10;;;;;;4982829;28;20385;-70
2022/05/14 11:41:47;;;;;;;;;;;18.50;97.30;;;;;;4982880;28;19996;-69
2022/05/14 11:44:12;;;;;;;;;;;18.30;97.70;;;;;;5002553;28;19999;-68
2022/05/14 11:46:48;;;;;;;;;;;18.40;97.10;;;;;;5003981;28;19913;-69
2022/05/14 11:49:16;;;;;;;;;;;18.50;97.20;;;;;;5007422;28;20287;-70
2022/05/14 11:51:51;;;;;;;;;;;18.80;96.90;;;;;;5004272;28;20096;-68
2022/05/14 11:54:26;;;;;;;;;;;19.00;96.20;;;;;;4998322;28;20257;-67
2022/05/14 11:56:56;;;;;;;;;;;19.00;95.70;;;;;;4991766;28;19916;-69
2022/05/14 11:59:29;;;;;;;;;;;19.00;95.80;;;;;;4988666;28;19910;-70
2022/05/14 12:01:59;;;;;;;;;;;18.90;95.90;;;;;;5008895;28;21228;-70
2022/05/14 12:04:44;;;;;;;;;;;18.90;95.80;;;;;;5003453;28;19963;-69
2022/05/14 12:07:22;;;;;;;;;;;19.00;96.10;;;;;;5004957;28;20508;-68
2022/05/14 12:10:07;;;;;;;;;;;19.10;96.00;;;;;;5006104;28;20898;-69
2022/05/14 12:12:48;;;;;;;;;;;19.10;96.20;;;;;;5005756;28;20312;-69
2022/05/14 12:15:15;;;;;;;;;;;19.10;95.20;;;;;;4988175;28;19913;-69
2022/05/14 12:17:48;;;;;;;;;;;19.00;94.90;;;;;;5000451;28;19909;-70
2022/05/14 12:20:17;;;;;;;;;;;18.90;95.30;;;;;;4985499;28;19913;-68
2022/05/14 12:22:50;;;;;;;;;;;18.80;96.10;;;;;;5004333;28;19963;-71
2022/05/14 12:25:15;;;;;;;;;;;18.60;96.50;;;;;;5001316;28;19920;-68
2022/05/14 12:27:48;;;;;;;;;;;18.60;96.80;;;;;;5003181;28;19913;-68
2022/05/14 12:33:11;;;;;;;;;;;18.80;96.80;;;;;;5003017;28;19921;-69
2022/05/14 12:33:12;;;;;;;;;;;19.10;96.20;;;;;;5003778;28;19913;-69
2022/05/14 12:35:37;;;;;;;;;;;19.20;95.30;;;;;;5003756;28;19914;-70
2022/05/14 12:38:05;;;;;;;;;;;19.20;96.20;;;;;;5004943;28;20331;-69
2022/05/14 12:40:33;;;;;;;;;;;19.30;95.10;;;;;;5004321;28;20422;-68
2022/05/14 12:42:59;;;;;;;;;;;19.40;94.90;;;;;;4997812;28;19917;-69
2022/05/14 12:45:36;;;;;;;;;;;19.50;95.50;;;;;;5005675;28;19960;-69
2022/05/14 12:48:04;;;;;;;;;;;19.50;94.40;;;;;;5002736;28;20367;-68
2022/05/14 12:50:32;;;;;;;;;;;19.60;94.60;;;;;;4995927;28;20341;-68
2022/05/14 12:53:06;;;;;;;;;;;19.70;94.70;;;;;;4986974;28;19910;-68
2022/05/14 12:55:34;;;;;;;;;;;19.70;94.10;;;;;;5003759;28;19917;-69
2022/05/14 12:58:01;;;;;;;;;;;19.50;94.10;;;;;;5005987;28;19920;-69
2022/05/14 13:00:28;;;;;;;;;;;19.50;93.40;;;;;;5001359;28;20557;-69
2022/05/14 13:02:57;;;;;;;;;;;19.70;94.30;;;;;;5004150;28;20359;-69
2022/05/14 13:05:45;;;;;;;;;;;19.60;94.00;;;;;;5005293;28;19910;-68
2022/05/14 13:08:13;;;;;;;;;;;19.60;94.20;;;;;;4984885;28;19917;-69
2022/05/14 13:10:39;;;;;;;;;;;19.70;94.40;;;;;;5006182;28;20434;-69
2022/05/14 13:13:08;;;;;;;;;;;19.70;94.70;;;;;;5001191;28;19909;-69
2022/05/14 13:15:36;;;;;;;;;;;19.50;94.90;;;;;;5005135;28;20423;-68
2022/05/14 13:18:14;;;;;;;;;;;19.70;95.10;;;;;;5003146;28;19980;-69
2022/05/14 13:20:41;;;;;;;;;;;19.80;93.90;;;;;;5000686;28;19909;-69
2022/05/14 13:23:16;;;;;;;;;;;19.90;93.70;;;;;;4980437;28;20319;-69
2022/05/14 13:25:42;;;;;;;;;;;19.90;94.00;;;;;;5006498;28;19954;-69
2022/05/14 13:28:26;;;;;;;;;;;20.00;93.70;;;;;;5003107;28;19917;-69
2022/05/14 13:30:52;;;;;;;;;;;20.10;93.30;;;;;;5001620;28;20814;-71
2022/05/14 13:33:34;;;;;;;;;;;20.10;93.10;;;;;;5003813;28;19910;-69
2022/05/14 13:38:53;;;;;;;;;;;20.30;93.00;;;;;;5002279;28;20417;-69
2022/05/14 13:41:23;;;;;;;;;;;20.50;93.20;;;;;;4986118;28;19913;-70
2022/05/14 13:43:50;;;;;;;;;;;20.60;92.50;;;;;;4995678;28;19921;-71
2022/05/14 13:46:21;;;;;;;;;;;20.60;92.70;;;;;;5006061;28;19960;-70
2022/05/14 13:48:47;;;;;;;;;;;20.60;92.20;;;;;;4986807;28;20279;-70
2022/05/14 13:51:16;;;;;;;;;;;20.60;91.40;;;;;;5002388;28;19932;-69
2022/05/14 13:53:41;;;;;;;;;;;20.60;91.60;;;;;;4999109;28;20011;-70
2022/05/14 13:56:11;;;;;;;;;;;20.60;91.30;;;;;;5001176;28;20458;-68
2022/05/14 13:58:41;;;;;;;;;;;20.20;91.90;;;;;;5002089;28;20709;-69
2022/05/14 14:01:22;;;;;;;;;;;20.10;92.20;;;;;;5003283;28;19996;-70
2022/05/14 14:03:53;;;;;;;;;;;20.10;92.70;;;;;;5002767;28;19917;-69
2022/05/14 14:06:20;;;;;;;;;;;20.50;91.90;;;;;;5002426;28;19944;-69
2022/05/14 14:08:46;;;;;;;;;;;20.60;91.30;;;;;;4999416;28;19949;-69
2022/05/14 14:11:13;;;;;;;;;;;20.70;91.40;;;;;;5001013;28;19967;-69
2022/05/14 14:13:38;;;;;;;;;;;20.80;90.60;;;;;;4985624;28;19910;-68
2022/05/14 14:16:04;;;;;;;;;;;20.90;90.60;;;;;;5005125;28;19971;-68
2022/05/14 14:18:29;;;;;;;;;;;21.00;90.30;;;;;;5003375;28;20038;-68
2022/05/14 14:20:57;;;;;;;;;;;21.10;90.00;;;;;;5006661;28;20340;-70
2022/05/14 14:23:26;;;;;;;;;;;21.10;90.00;;;;;;5004505;28;19913;-68
2022/05/14 14:25:51;;;;;;;;;;;21.20;89.30;;;;;;5005555;28;19913;-69
2022/05/14 14:28:19;;;;;;;;;;;21.40;88.00;;;;;;5011556;28;20000;-69
2022/05/14 14:30:45;;;;;;;;;;;21.40;88.80;;;;;;5002685;28;19917;-67
2022/05/14 14:33:11;;;;;;;;;;;21.30;88.70;;;;;;5007162;28;19914;-68
2022/05/14 14:35:36;;;;;;;;;;;21.00;89.70;;;;;;5012442;28;19996;-68
2022/05/14 14:38:02;;;;;;;;;;;21.00;88.50;;;;;;5010995;28;20018;-68
2022/05/14 14:40:27;;;;;;;;;;;21.00;88.20;;;;;;5005703;28;19909;-69
2022/05/14 14:42:53;;;;;;;;;;;21.20;88.80;;;;;;4991613;28;19910;-67